createdAt,value
2023-05-13T00:00:34.715Z,21.90
2023-05-13T00:03:07.239Z,21.90
2023-05-13T00:08:22.917Z,21.80
2023-05-13T00:10:55.410Z,21.90
2023-05-13T00:13:25.645Z,21.90
2023-05-13T00:15:54.953Z,21.80
2023-05-13T00:18:25.929Z,21.80
2023-05-13T00:20:57.358Z,21.80
2023-05-13T00:23:25.421Z,21.80
2023-05-13T00:25:55.254Z,21.80
2023-05-13T00:28:21.994Z,21.80
2023-05-13T00:30:53.096Z,21.80
2023-05-13T00:33:24.021Z,21.80
2023-05-13T00:35:52.317Z,21.80
2023-05-13T00:38:23.513Z,21.80
2023-05-13T00:40:54.859Z,21.80
2023-05-13T00:43:24.314Z,21.70
2023-05-13T00:45:54.386Z,21.70
2023-05-13T00:48:27.451Z,21.70
2023-05-13T00:51:01.343Z,21.70
2023-05-13T00:53:35.975Z,21.70
2023-05-13T00:56:05.365Z,21.70
2023-05-13T00:58:36.565Z,21.70
2023-05-13T01:01:39.111Z,21.70
2023-05-13T01:04:34.590Z,21.70
2023-05-13T01:07:38.879Z,21.60
2023-05-13T01:10:39.019Z,21.60
2023-05-13T01:13:19.403Z,21.60
2023-05-13T01:15:53.239Z,21.60
2023-05-13T01:18:52.359Z,21.60
2023-05-13T01:21:32.003Z,21.60
2023-05-13T01:24:04.619Z,21.60
2023-05-13T01:26:34.970Z,21.60
2023-05-13T01:29:06.784Z,21.60
2023-05-13T01:31:36.758Z,21.50
2023-05-13T01:34:15.113Z,21.50
2023-05-13T01:36:51.601Z,21.50
2023-05-13T01:42:08.504Z,21.50
2023-05-13T01:44:39.683Z,21.50
2023-05-13T01:47:10.927Z,21.50
2023-05-13T01:49:43.078Z,21.50
2023-05-13T01:52:13.631Z,21.50
2023-05-13T01:54:45.706Z,21.50
2023-05-13T01:57:15.646Z,21.50
2023-05-13T01:59:51.812Z,21.40
2023-05-13T02:02:22.393Z,21.50
2023-05-13T02:04:54.050Z,21.50
2023-05-13T02:07:23.565Z,21.40
2023-05-13T02:09:52.758Z,21.50
2023-05-13T02:12:22.675Z,21.40
2023-05-13T02:14:49.363Z,21.40
2023-05-13T02:17:21.273Z,21.40
2023-05-13T02:19:53.421Z,21.40
2023-05-13T02:22:23.674Z,21.40
2023-05-13T02:24:59.228Z,21.40
2023-05-13T02:30:13.052Z,21.40
2023-05-13T02:32:44.229Z,21.40
2023-05-13T02:35:17.161Z,21.40
2023-05-13T02:37:46.161Z,21.40
2023-05-13T02:40:19.178Z,21.30
2023-05-13T02:42:48.203Z,21.40
2023-05-13T02:48:02.418Z,21.40
2023-05-13T02:50:32.843Z,21.40
2023-05-13T02:53:04.743Z,21.30
2023-05-13T02:55:35.105Z,21.30
2023-05-13T02:58:06.051Z,21.30
2023-05-13T03:00:39.427Z,21.30
2023-05-13T03:03:08.574Z,21.30
2023-05-13T03:05:41.469Z,21.30
2023-05-13T03:08:11.474Z,21.30
2023-05-13T03:10:42.544Z,21.30
2023-05-13T03:13:15.727Z,21.30
2023-05-13T03:15:45.958Z,21.30
2023-05-13T03:18:16.456Z,21.30
2023-05-13T03:20:44.256Z,21.30
2023-05-13T03:23:15.717Z,21.20
2023-05-13T03:25:44.948Z,21.20
2023-05-13T03:28:15.198Z,21.20
2023-05-13T03:30:46.907Z,21.20
2023-05-13T03:33:17.782Z,21.20
2023-05-13T03:35:50.631Z,21.20
2023-05-13T03:38:21.827Z,21.20
2023-05-13T03:40:53.495Z,21.20
2023-05-13T03:43:23.392Z,21.20
2023-05-13T03:45:51.857Z,21.20
2023-05-13T03:48:24.110Z,21.20
2023-05-13T03:50:56.065Z,21.20
2023-05-13T03:53:25.041Z,21.20
2023-05-13T03:55:52.966Z,21.10
2023-05-13T03:58:25.360Z,21.10
2023-05-13T04:00:55.593Z,21.10
2023-05-13T04:03:27.256Z,21.10
2023-05-13T04:05:54.018Z,21.10
2023-05-13T04:08:24.265Z,21.10
2023-05-13T04:10:55.428Z,21.10
2023-05-13T04:13:25.038Z,21.10
2023-05-13T04:15:52.207Z,21.10
2023-05-13T04:18:23.686Z,21.10
2023-05-13T04:20:55.438Z,21.10
2023-05-13T04:26:10.226Z,21.10
2023-05-13T04:28:41.796Z,21.00
2023-05-13T04:31:11.773Z,21.10
2023-05-13T04:33:38.453Z,21.10
2023-05-13T04:36:08.779Z,21.00
2023-05-13T04:38:38.680Z,21.10
2023-05-13T04:41:10.312Z,21.00
2023-05-13T04:43:38.230Z,21.10
2023-05-13T04:46:09.684Z,21.10
2023-05-13T04:48:41.205Z,21.00
2023-05-13T04:51:11.091Z,21.00
2023-05-13T04:53:42.431Z,21.00
2023-05-13T04:56:12.972Z,21.00
2023-05-13T04:58:42.881Z,21.00
2023-05-13T05:01:11.480Z,21.00
2023-05-13T05:03:41.585Z,21.00
2023-05-13T05:06:10.966Z,21.00
2023-05-13T05:08:41.194Z,21.00
2023-05-13T05:11:12.937Z,21.00
2023-05-13T05:13:44.436Z,21.00
2023-05-13T05:16:15.302Z,21.00
2023-05-13T05:18:46.297Z,21.00
2023-05-13T05:21:17.705Z,21.00
2023-05-13T05:23:48.372Z,21.00
2023-05-13T05:26:19.377Z,21.00
2023-05-13T05:28:50.025Z,21.00
2023-05-13T05:31:20.475Z,21.00
2023-05-13T05:33:48.681Z,21.00
2023-05-13T05:36:19.116Z,20.90
2023-05-13T05:38:50.659Z,20.90
2023-05-13T05:41:22.698Z,21.00
2023-05-13T05:44:01.840Z,21.00
2023-05-13T05:46:34.053Z,21.00
2023-05-13T05:49:06.142Z,21.00
2023-05-13T05:51:36.786Z,20.90
2023-05-13T05:54:10.361Z,20.90
2023-05-13T05:56:41.583Z,20.90
2023-05-13T05:59:13.721Z,20.90
2023-05-13T06:01:43.767Z,20.90
2023-05-13T06:04:12.675Z,20.90
2023-05-13T06:06:42.965Z,20.90
2023-05-13T06:09:11.425Z,20.90
2023-05-13T06:11:40.401Z,20.90
2023-05-13T06:14:10.030Z,21.00
2023-05-13T06:16:40.664Z,20.90
2023-05-13T06:19:10.048Z,20.90
2023-05-13T06:21:41.620Z,21.00
2023-05-13T06:24:14.605Z,21.00
2023-05-13T06:26:46.296Z,20.90
2023-05-13T06:29:15.596Z,20.90
2023-05-13T06:31:44.411Z,21.00
2023-05-13T06:34:16.903Z,20.90
2023-05-13T06:36:45.409Z,20.90
2023-05-13T06:39:18.666Z,20.90
2023-05-13T06:41:47.270Z,21.00
2023-05-13T06:44:17.146Z,20.90
2023-05-13T06:46:51.167Z,21.00
2023-05-13T06:49:22.748Z,20.90
2023-05-13T06:51:54.616Z,20.90
2023-05-13T06:54:25.300Z,21.00
2023-05-13T06:59:39.343Z,21.00
2023-05-13T07:04:56.174Z,21.00
2023-05-13T07:07:26.507Z,20.90
2023-05-13T07:10:01.155Z,21.00
2023-05-13T07:12:32.983Z,21.00
2023-05-13T07:15:03.738Z,21.00
2023-05-13T07:17:38.617Z,21.00
2023-05-13T07:20:13.901Z,21.00
2023-05-13T07:22:45.348Z,21.00
2023-05-13T07:25:15.604Z,21.00
2023-05-13T07:27:43.884Z,21.00
2023-05-13T07:30:14.906Z,20.90
2023-05-13T07:32:47.012Z,21.00
2023-05-13T07:35:19.826Z,21.00
2023-05-13T07:37:51.979Z,21.00
2023-05-13T07:40:24.623Z,21.00
2023-05-13T07:42:55.363Z,21.00
2023-05-13T07:45:25.829Z,21.00
2023-05-13T07:50:39.039Z,21.00
2023-05-13T07:53:11.296Z,21.00
2023-05-13T07:55:39.628Z,21.00
2023-05-13T07:58:11.339Z,21.00
2023-05-13T08:00:42.001Z,21.00
2023-05-13T08:03:12.945Z,21.00
2023-05-13T08:05:42.690Z,21.10
2023-05-13T08:08:14.502Z,21.10
2023-05-13T08:10:45.359Z,21.10
2023-05-13T08:13:14.659Z,21.10
2023-05-13T08:15:43.614Z,21.10
2023-05-13T08:18:15.339Z,21.10
2023-05-13T08:20:47.689Z,21.10
2023-05-13T08:23:19.472Z,21.10
2023-05-13T08:25:50.343Z,21.20
2023-05-13T08:28:28.357Z,21.10
2023-05-13T08:31:05.525Z,21.20
2023-05-13T08:33:37.386Z,21.10
2023-05-13T08:36:04.442Z,21.10
2023-05-13T08:38:36.345Z,21.10
2023-05-13T08:41:21.927Z,21.10
2023-05-13T08:43:54.316Z,21.20
2023-05-13T08:46:29.526Z,21.20
2023-05-13T08:49:02.097Z,21.20
2023-05-13T08:51:35.041Z,21.20
2023-05-13T08:54:06.345Z,21.20
2023-05-13T08:56:37.740Z,21.20
2023-05-13T08:59:10.968Z,21.20
2023-05-13T09:01:42.614Z,21.20
2023-05-13T09:04:11.986Z,21.20
2023-05-13T09:06:43.797Z,21.30
2023-05-13T09:09:15.176Z,21.30
2023-05-13T09:11:49.496Z,21.30
2023-05-13T09:14:23.238Z,21.30
2023-05-13T09:16:52.678Z,21.30
2023-05-13T09:19:23.892Z,21.30
2023-05-13T09:21:55.127Z,21.30
2023-05-13T09:24:25.933Z,21.40
2023-05-13T09:26:56.555Z,21.30
2023-05-13T09:29:35.838Z,21.30
2023-05-13T09:32:20.924Z,21.40
2023-05-13T09:34:54.017Z,21.30
2023-05-13T09:37:25.841Z,21.40
2023-05-13T09:39:56.137Z,21.40
2023-05-13T09:42:39.770Z,21.40
2023-05-13T09:45:11.999Z,21.40
2023-05-13T09:47:44.028Z,21.40
2023-05-13T09:50:12.143Z,21.40
2023-05-13T09:52:43.667Z,21.40
2023-05-13T09:55:15.496Z,21.40
2023-05-13T09:57:48.904Z,21.40
2023-05-13T10:00:31.593Z,21.40
2023-05-13T10:03:07.410Z,21.40
2023-05-13T10:05:39.352Z,21.50
2023-05-13T10:08:12.733Z,21.50
2023-05-13T10:10:50.408Z,21.50
2023-05-13T10:13:25.308Z,21.50
2023-05-13T10:16:06.514Z,21.50
2023-05-13T10:18:36.742Z,21.50
2023-05-13T10:21:05.982Z,21.60
2023-05-13T10:23:37.228Z,21.60
2023-05-13T10:26:13.935Z,21.60
2023-05-13T10:28:45.865Z,21.60
2023-05-13T10:31:15.724Z,21.60
2023-05-13T10:33:46.947Z,21.60
2023-05-13T10:36:48.130Z,21.60
2023-05-13T10:39:53.271Z,21.60
2023-05-13T10:42:28.420Z,21.70
2023-05-13T10:44:58.014Z,21.70
2023-05-13T10:47:30.139Z,21.70
2023-05-13T10:49:59.451Z,21.70
2023-05-13T10:52:48.633Z,21.70
2023-05-13T10:55:26.644Z,21.80
2023-05-13T10:58:16.777Z,21.70
2023-05-13T11:00:56.347Z,21.80
2023-05-13T11:03:39.141Z,21.80
2023-05-13T11:06:45.964Z,21.80
2023-05-13T11:09:32.742Z,21.80
2023-05-13T11:12:08.993Z,21.80
2023-05-13T11:14:39.184Z,21.80
2023-05-13T11:17:11.243Z,21.80
2023-05-13T11:19:50.038Z,21.90
2023-05-13T11:22:25.425Z,21.90
2023-05-13T11:25:07.614Z,21.90
2023-05-13T11:27:44.569Z,21.90
2023-05-13T11:30:32.564Z,21.90
2023-05-13T11:33:06.113Z,22.00
2023-05-13T11:35:37.795Z,22.00
2023-05-13T11:38:08.750Z,22.00
2023-05-13T11:40:40.698Z,22.00
2023-05-13T11:43:10.956Z,22.00
2023-05-13T11:45:44.272Z,22.10
2023-05-13T11:48:26.932Z,22.10
2023-05-13T11:50:59.730Z,22.10
2023-05-13T11:56:11.210Z,22.10
2023-05-13T11:58:40.321Z,22.10
2023-05-13T12:01:16.844Z,22.20
2023-05-13T12:03:45.889Z,22.20
2023-05-13T12:06:14.988Z,22.20
2023-05-13T12:08:49.603Z,22.20
2023-05-13T12:11:19.856Z,22.20
2023-05-13T12:13:50.248Z,22.20
2023-05-13T12:16:22.513Z,22.30
2023-05-13T12:19:06.675Z,22.20
2023-05-13T12:21:38.613Z,22.30
2023-05-13T12:24:23.939Z,22.30
2023-05-13T12:26:54.998Z,22.30
2023-05-13T12:29:25.076Z,22.30
2023-05-13T12:32:09.551Z,22.30
2023-05-13T12:34:39.306Z,22.30
2023-05-13T12:37:14.071Z,22.40
2023-05-13T12:39:43.159Z,22.40
2023-05-13T12:42:21.124Z,22.40
2023-05-13T12:44:49.784Z,22.40
2023-05-13T12:47:24.166Z,22.40
2023-05-13T12:50:03.785Z,22.50
2023-05-13T12:52:35.268Z,22.50
2023-05-13T12:55:12.823Z,22.50
2023-05-13T12:57:45.064Z,22.50
2023-05-13T13:00:16.992Z,22.50
2023-05-13T13:02:47.483Z,22.50
2023-05-13T13:05:16.340Z,22.50
2023-05-13T13:07:47.103Z,22.60
2023-05-13T13:10:21.380Z,22.60
2023-05-13T13:12:53.357Z,22.60
2023-05-13T13:15:24.316Z,22.60
2023-05-13T13:17:53.716Z,22.60
2023-05-13T13:20:23.426Z,22.60
2023-05-13T13:22:56.727Z,22.70
2023-05-13T13:28:14.896Z,22.70
2023-05-13T13:33:41.711Z,22.70
2023-05-13T13:36:13.324Z,22.70
2023-05-13T13:38:43.016Z,22.80
2023-05-13T13:41:14.743Z,22.80
2023-05-13T13:43:43.466Z,22.80
2023-05-13T13:46:15.256Z,22.80
2023-05-13T13:48:46.577Z,22.80
2023-05-13T13:51:16.787Z,22.90
2023-05-13T13:53:45.589Z,22.90
2023-05-13T13:56:15.406Z,22.90
2023-05-13T13:58:46.948Z,22.90
2023-05-13T14:01:18.662Z,22.90
2023-05-13T14:03:51.856Z,23.00
2023-05-13T14:06:24.458Z,23.00
2023-05-13T14:08:52.662Z,23.00
2023-05-13T14:11:21.428Z,23.00
2023-05-13T14:13:50.205Z,23.00
2023-05-13T14:16:19.100Z,23.00
2023-05-13T14:18:46.969Z,23.10
2023-05-13T14:21:16.808Z,23.00
2023-05-13T14:23:46.342Z,23.10
2023-05-13T14:26:19.122Z,23.10
2023-05-13T14:28:49.581Z,23.10
2023-05-13T14:31:19.510Z,23.10
2023-05-13T14:33:48.933Z,23.10
2023-05-13T14:38:59.612Z,23.10
2023-05-13T14:41:31.788Z,23.20
2023-05-13T14:44:02.146Z,23.20
2023-05-13T14:46:31.512Z,23.20
2023-05-13T14:49:01.046Z,23.20
2023-05-13T14:51:35.298Z,23.30
2023-05-13T14:54:04.637Z,23.20
2023-05-13T14:56:42.146Z,23.20
2023-05-13T14:59:13.590Z,23.30
2023-05-13T15:01:46.181Z,23.30
2023-05-13T15:04:18.407Z,23.30
2023-05-13T15:06:53.405Z,23.30
2023-05-13T15:09:25.410Z,23.30
2023-05-13T15:11:54.959Z,23.30
2023-05-13T15:14:33.492Z,23.30
2023-05-13T15:17:00.733Z,23.40
2023-05-13T15:19:34.612Z,23.40
2023-05-13T15:22:05.526Z,23.40
2023-05-13T15:24:36.789Z,23.40
2023-05-13T15:29:51.737Z,23.40
2023-05-13T15:32:20.572Z,23.50
2023-05-13T15:34:50.200Z,23.40
2023-05-13T15:37:20.065Z,23.50
2023-05-13T15:42:29.227Z,23.50
2023-05-13T15:45:00.790Z,23.50
2023-05-13T15:47:43.489Z,23.50
2023-05-13T15:50:13.215Z,23.60
2023-05-13T15:52:44.650Z,23.60
2023-05-13T15:55:18.909Z,23.60
2023-05-13T15:57:50.041Z,23.60
2023-05-13T16:00:19.374Z,23.60
2023-05-13T16:02:47.723Z,23.60
2023-05-13T16:05:19.759Z,23.60
2023-05-13T16:07:48.267Z,23.60
2023-05-13T16:10:20.600Z,23.70
2023-05-13T16:12:52.513Z,23.70
2023-05-13T16:15:26.209Z,23.70
2023-05-13T16:17:55.206Z,23.70
2023-05-13T16:20:26.990Z,23.70
2023-05-13T16:22:58.362Z,23.80
2023-05-13T16:25:27.536Z,23.80
2023-05-13T16:30:38.832Z,23.80
2023-05-13T16:33:12.775Z,23.80
2023-05-13T16:35:42.942Z,23.80
2023-05-13T16:38:13.794Z,23.80
2023-05-13T16:40:46.937Z,23.80
2023-05-13T16:46:00.124Z,23.90
2023-05-13T16:48:33.129Z,23.80
2023-05-13T16:51:03.476Z,23.90
2023-05-13T16:53:34.714Z,23.90
2023-05-13T16:56:06.404Z,23.90
2023-05-13T16:58:38.021Z,23.90
2023-05-13T17:01:08.435Z,23.90
2023-05-13T17:03:40.193Z,23.90
2023-05-13T17:06:09.860Z,23.90
2023-05-13T17:08:39.984Z,23.90
2023-05-13T17:11:16.617Z,23.90
2023-05-13T17:13:48.197Z,23.90
2023-05-13T17:19:02.341Z,23.90
2023-05-13T17:21:33.162Z,23.90
2023-05-13T17:24:04.962Z,23.90
2023-05-13T17:26:37.633Z,23.90
2023-05-13T17:29:13.226Z,23.90
2023-05-13T17:31:44.113Z,24.00
2023-05-13T17:34:21.457Z,24.00
2023-05-13T17:36:51.272Z,23.90
2023-05-13T17:39:24.616Z,24.00
2023-05-13T17:41:54.889Z,23.90
2023-05-13T17:44:24.116Z,24.00
2023-05-13T17:46:54.802Z,24.00
2023-05-13T17:49:25.551Z,24.00
2023-05-13T17:51:55.019Z,24.00
2023-05-13T17:54:26.693Z,24.00
2023-05-13T17:56:56.505Z,24.00
2023-05-13T17:59:29.346Z,24.00
2023-05-13T18:01:59.534Z,24.00
2023-05-13T18:04:32.080Z,24.00
2023-05-13T18:07:03.222Z,24.00
2023-05-13T18:09:31.314Z,24.10
2023-05-13T18:12:04.082Z,24.20
2023-05-13T18:14:33.494Z,24.30
2023-05-13T18:17:04.260Z,24.40
2023-05-13T18:19:38.792Z,24.40
2023-05-13T18:22:13.639Z,24.40
2023-05-13T18:24:46.023Z,24.50
2023-05-13T18:27:16.256Z,24.50
2023-05-13T18:29:47.369Z,24.60
2023-05-13T18:32:14.173Z,24.60
2023-05-13T18:34:48.482Z,24.70
2023-05-13T18:37:16.490Z,24.60
2023-05-13T18:39:48.751Z,24.60
2023-05-13T18:42:18.973Z,24.60
2023-05-13T18:44:48.323Z,24.60
2023-05-13T18:47:18.559Z,24.60
2023-05-13T18:49:47.553Z,24.60
2023-05-13T18:52:17.943Z,24.60
2023-05-13T18:54:50.496Z,24.60
2023-05-13T18:57:23.488Z,24.70
2023-05-13T18:59:53.373Z,24.70
2023-05-13T19:02:21.366Z,24.70
2023-05-13T19:04:48.822Z,24.70
2023-05-13T19:07:17.958Z,24.80
2023-05-13T19:09:46.010Z,24.80
2023-05-13T19:12:14.882Z,24.80
2023-05-13T19:14:47.488Z,24.80
2023-05-13T19:17:21.204Z,24.80
2023-05-13T19:19:52.357Z,24.90
2023-05-13T19:22:22.542Z,24.90
2023-05-13T19:24:49.765Z,24.90
2023-05-13T19:27:20.990Z,24.90
2023-05-13T19:29:54.873Z,24.90
2023-05-13T19:32:22.974Z,25.00
2023-05-13T19:34:53.295Z,25.00
2023-05-13T19:37:22.611Z,25.00
2023-05-13T19:39:54.709Z,24.90
2023-05-13T19:42:29.154Z,24.90
2023-05-13T19:44:59.570Z,24.80
2023-05-13T19:47:29.985Z,24.80
2023-05-13T19:50:01.185Z,24.70
2023-05-13T19:52:34.056Z,24.70
2023-05-13T19:55:06.126Z,24.70
2023-05-13T19:57:36.962Z,24.60
2023-05-13T20:00:24.407Z,24.60
2023-05-13T20:02:54.669Z,24.50
2023-05-13T20:05:24.892Z,24.50
2023-05-13T20:07:51.936Z,24.50
2023-05-13T20:10:19.832Z,24.50
2023-05-13T20:12:53.998Z,24.40
2023-05-13T20:15:25.416Z,24.40
2023-05-13T20:17:55.597Z,24.40
2023-05-13T20:20:27.023Z,24.40
2023-05-13T20:22:55.974Z,24.30
2023-05-13T20:25:25.061Z,24.40
2023-05-13T20:27:59.491Z,24.30
2023-05-13T20:30:28.726Z,24.30
2023-05-13T20:33:00.833Z,24.30
2023-05-13T20:35:32.967Z,24.20
2023-05-13T20:38:03.794Z,24.20
2023-05-13T20:40:36.320Z,24.20
2023-05-13T20:43:07.912Z,24.10
2023-05-13T20:45:41.189Z,24.10
2023-05-13T20:48:16.539Z,24.10
2023-05-13T20:50:45.240Z,24.10
2023-05-13T20:53:16.796Z,24.10
2023-05-13T20:55:47.544Z,24.10
2023-05-13T20:58:17.207Z,24.00
2023-05-13T21:00:48.790Z,24.00
2023-05-13T21:03:19.804Z,24.00
2023-05-13T21:05:51.250Z,23.90
2023-05-13T21:08:19.430Z,23.90
2023-05-13T21:10:49.499Z,23.90
2023-05-13T21:13:24.214Z,23.80
2023-05-13T21:15:53.172Z,23.80
2023-05-13T21:18:20.909Z,23.80
2023-05-13T21:20:51.835Z,23.80
2023-05-13T21:23:22.780Z,23.80
2023-05-13T21:25:53.286Z,23.70
2023-05-13T21:28:26.103Z,23.70
2023-05-13T21:30:56.147Z,23.70
2023-05-13T21:33:27.388Z,23.70
2023-05-13T21:36:00.478Z,23.70
2023-05-13T21:38:32.447Z,23.70
2023-05-13T21:41:05.022Z,23.70
2023-05-13T21:43:36.866Z,23.60
2023-05-13T21:46:06.371Z,23.60
2023-05-13T21:48:37.275Z,23.60
2023-05-13T21:51:09.566Z,23.60
2023-05-13T21:53:38.384Z,23.60
2023-05-13T21:56:09.262Z,23.50
2023-05-13T21:58:40.486Z,23.60
2023-05-13T22:01:09.966Z,23.50
2023-05-13T22:03:52.278Z,23.50
2023-05-13T22:06:24.452Z,23.50
2023-05-13T22:08:54.742Z,23.50
2023-05-13T22:11:25.980Z,23.50
2023-05-13T22:13:58.744Z,23.50
2023-05-13T22:16:30.030Z,23.50
2023-05-13T22:19:02.827Z,23.40
2023-05-13T22:21:35.176Z,23.40
2023-05-13T22:24:09.418Z,23.40
2023-05-13T22:26:38.712Z,23.40
2023-05-13T22:29:09.228Z,23.30
2023-05-13T22:31:41.146Z,23.40
2023-05-13T22:34:12.069Z,23.40
2023-05-13T22:36:43.895Z,23.30
2023-05-13T22:39:14.344Z,23.30
2023-05-13T22:41:44.965Z,23.30
2023-05-13T22:44:14.782Z,23.30
2023-05-13T22:46:46.558Z,23.30
2023-05-13T22:49:18.145Z,23.30
2023-05-13T22:51:50.361Z,23.30
2023-05-13T22:54:19.894Z,23.30
2023-05-13T22:56:51.111Z,23.30
2023-05-13T22:59:21.127Z,23.30
2023-05-13T23:01:51.543Z,23.30
2023-05-13T23:04:21.954Z,23.20
2023-05-13T23:06:52.900Z,23.20
2023-05-13T23:09:24.736Z,23.20
2023-05-13T23:11:54.161Z,23.20
2023-05-13T23:14:27.614Z,23.20
2023-05-13T23:16:59.329Z,23.20
2023-05-13T23:19:31.594Z,23.20
2023-05-13T23:22:01.526Z,23.20
2023-05-13T23:24:38.058Z,23.10
2023-05-13T23:27:09.961Z,23.10
2023-05-13T23:29:42.042Z,23.10
2023-05-13T23:32:11.109Z,23.10
2023-05-13T23:34:44.233Z,23.10
2023-05-13T23:37:12.221Z,23.10
2023-05-13T23:39:40.461Z,23.10
2023-05-13T23:42:11.985Z,23.10
2023-05-13T23:44:48.229Z,23.10
2023-05-13T23:47:17.742Z,23.10
2023-05-13T23:49:46.279Z,23.00
2023-05-13T23:52:18.107Z,23.00
2023-05-13T23:54:46.131Z,23.00
2023-05-13T23:57:18.544Z,23.00
2023-05-13T23:59:49.156Z,23.00
